createdAt,value
2022-10-19T00:03:10.455Z,16.00
2022-10-19T00:08:13.387Z,14.70
2022-10-19T00:13:16.588Z,14.50
2022-10-19T00:18:19.638Z,15.30
2022-10-19T00:23:23.052Z,14.00
2022-10-19T00:33:29.408Z,17.80
2022-10-19T00:38:32.438Z,17.30
2022-10-19T00:43:55.235Z,19.80
2022-10-19T00:49:05.871Z,18.70
2022-10-19T00:59:18.359Z,19.30
2022-10-19T01:04:26.361Z,16.60
2022-10-19T01:09:29.395Z,18.40
2022-10-19T01:14:53.655Z,18.60
2022-10-19T01:20:43.594Z,17.50
2022-10-19T01:26:23.438Z,19.90
2022-10-19T01:31:52.465Z,19.80
2022-10-19T01:37:18.380Z,19.50
2022-10-19T01:42:51.936Z,22.10
2022-10-19T01:48:01.488Z,19.10
2022-10-19T01:53:08.692Z,21.70
2022-10-19T01:58:18.334Z,19.30
2022-10-19T02:03:23.599Z,21.00
2022-10-19T02:08:37.986Z,21.40
2022-10-19T02:13:43.552Z,19.60
2022-10-19T02:18:50.824Z,20.80
2022-10-19T02:23:54.323Z,22.10
2022-10-19T02:28:58.279Z,20.70
2022-10-19T02:34:01.590Z,21.40
2022-10-19T02:39:05.130Z,25.40
2022-10-19T02:49:23.220Z,19.50
2022-10-19T02:54:27.441Z,22.20
2022-10-19T02:59:30.352Z,20.50
2022-10-19T03:04:33.233Z,21.10
2022-10-19T03:09:36.387Z,24.80
2022-10-19T03:14:39.584Z,23.60
2022-10-19T03:19:42.556Z,25.30
2022-10-19T03:24:45.508Z,22.50
2022-10-19T03:29:48.450Z,20.30
2022-10-19T03:34:51.370Z,23.30
2022-10-19T03:39:54.314Z,21.40
2022-10-19T03:44:57.478Z,23.90
2022-10-19T03:50:00.419Z,22.90
2022-10-19T03:55:03.390Z,25.20
2022-10-19T04:00:07.792Z,27.60
2022-10-19T04:05:10.719Z,27.20
2022-10-19T04:10:13.714Z,25.60
2022-10-19T04:15:16.712Z,25.50
2022-10-19T04:20:19.617Z,26.00
2022-10-19T04:25:22.557Z,23.80
2022-10-19T04:30:25.515Z,26.30
2022-10-19T04:35:28.583Z,26.40
2022-10-19T04:40:31.565Z,28.10
2022-10-19T04:45:36.076Z,22.90
2022-10-19T04:50:39.022Z,21.80
2022-10-19T04:55:42.787Z,24.50
2022-10-19T05:00:46.053Z,23.10
2022-10-19T05:05:50.041Z,22.90
2022-10-19T05:10:52.989Z,19.90
2022-10-19T05:15:58.620Z,25.90
2022-10-19T05:21:22.023Z,24.60
2022-10-19T05:26:28.001Z,21.70
2022-10-19T05:31:34.050Z,23.40
2022-10-19T05:36:40.991Z,23.80
2022-10-19T05:41:45.899Z,20.10
2022-10-19T05:46:50.725Z,22.40
2022-10-19T05:51:54.217Z,22.20
2022-10-19T06:01:59.946Z,21.20
2022-10-19T06:07:03.244Z,16.30
2022-10-19T06:12:06.166Z,21.40
2022-10-19T06:17:09.402Z,17.40
2022-10-19T06:22:12.294Z,19.90
2022-10-19T06:27:15.397Z,20.30
2022-10-19T06:32:18.541Z,25.00
2022-10-19T06:37:21.522Z,27.10
2022-10-19T06:42:24.496Z,36.00
2022-10-19T06:47:31.526Z,38.20
2022-10-19T06:52:36.133Z,27.70
2022-10-19T06:57:39.625Z,20.20
2022-10-19T07:02:42.634Z,25.30
2022-10-19T07:07:45.870Z,23.50
2022-10-19T07:12:48.819Z,37.80
2022-10-19T07:17:53.359Z,23.70
2022-10-19T07:22:56.232Z,24.70
2022-10-19T07:27:59.220Z,26.20
2022-10-19T07:33:02.125Z,24.70
2022-10-19T07:38:05.008Z,23.80
2022-10-19T07:43:07.950Z,20.70
2022-10-19T07:48:10.881Z,20.10
2022-10-19T07:53:13.774Z,18.20
2022-10-19T07:58:16.673Z,19.60
2022-10-19T08:04:13.771Z,21.40
2022-10-19T08:08:43.867Z,22.30
2022-10-19T08:13:47.615Z,18.80
2022-10-19T08:18:52.520Z,20.60
2022-10-19T08:23:55.998Z,18.70
2022-10-19T08:34:08.542Z,17.50
2022-10-19T08:39:12.947Z,18.70
2022-10-19T08:44:47.131Z,17.40
2022-10-19T08:49:50.320Z,17.30
2022-10-19T08:55:28.342Z,21.00
2022-10-19T09:00:48.844Z,14.00
2022-10-19T09:06:00.257Z,17.60
2022-10-19T09:11:03.178Z,18.10
2022-10-19T09:16:06.404Z,17.80
2022-10-19T09:21:43.302Z,17.10
2022-10-19T09:26:54.651Z,13.00
2022-10-19T09:32:01.506Z,12.90
2022-10-19T09:37:05.132Z,11.50
2022-10-19T09:42:50.133Z,11.10
2022-10-19T09:47:53.615Z,11.60
2022-10-19T09:58:14.421Z,14.20
2022-10-19T10:03:43.676Z,18.00
2022-10-19T10:08:50.984Z,13.70
2022-10-19T10:13:56.537Z,9.10
2022-10-19T10:19:11.525Z,12.40
2022-10-19T10:24:18.982Z,9.40
2022-10-19T10:29:32.940Z,11.40
2022-10-19T10:35:05.874Z,7.50
2022-10-19T10:40:31.530Z,8.40
2022-10-19T10:45:44.199Z,8.20
2022-10-19T10:50:47.996Z,8.20
2022-10-19T10:55:56.841Z,8.40
2022-10-19T11:01:07.723Z,7.00
2022-10-19T11:06:12.476Z,8.00
2022-10-19T11:11:22.418Z,9.90
2022-10-19T11:16:33.909Z,9.20
2022-10-19T11:21:55.754Z,7.30
2022-10-19T11:27:07.984Z,11.30
2022-10-19T11:32:25.257Z,6.90
2022-10-19T11:37:49.900Z,6.90
2022-10-19T11:43:29.441Z,9.20
2022-10-19T11:48:44.398Z,9.40
2022-10-19T11:54:06.970Z,8.40
2022-10-19T12:00:39.135Z,8.00
2022-10-19T12:06:45.828Z,6.20
2022-10-19T12:12:22.879Z,11.00
2022-10-19T12:17:34.443Z,7.80
2022-10-19T12:22:38.511Z,7.60
2022-10-19T12:27:42.180Z,12.30
2022-10-19T12:32:57.079Z,6.80
2022-10-19T12:38:22.258Z,5.60
2022-10-19T12:43:40.160Z,5.70
2022-10-19T12:48:43.064Z,7.90
2022-10-19T12:53:49.291Z,7.20
2022-10-19T12:59:01.661Z,8.70
2022-10-19T13:04:27.029Z,7.60
2022-10-19T13:09:44.820Z,11.90
2022-10-19T13:14:58.717Z,7.00
2022-10-19T13:20:14.064Z,10.90
2022-10-19T13:25:17.277Z,12.90
2022-10-19T13:30:38.459Z,11.50
2022-10-19T13:35:41.419Z,18.40
2022-10-19T13:40:47.355Z,11.90
2022-10-19T13:46:12.488Z,12.80
2022-10-19T13:51:48.671Z,12.60
2022-10-19T13:57:30.797Z,10.50
2022-10-19T14:03:05.394Z,11.60
2022-10-19T14:08:38.713Z,8.30
2022-10-19T14:13:42.438Z,8.50
2022-10-19T14:18:54.549Z,7.20
2022-10-19T14:23:57.669Z,10.20
2022-10-19T14:29:00.683Z,6.60
2022-10-19T14:34:07.762Z,7.50
2022-10-19T14:39:31.588Z,7.10
2022-10-19T14:44:43.568Z,5.80
2022-10-19T14:49:47.348Z,9.70
2022-10-19T14:54:53.260Z,13.80
2022-10-19T15:00:03.351Z,9.10
2022-10-19T15:05:19.427Z,10.20
2022-10-19T15:10:47.122Z,8.10
2022-10-19T15:15:54.668Z,11.20
2022-10-19T15:21:12.948Z,7.70
2022-10-19T15:26:22.018Z,12.30
2022-10-19T15:31:28.413Z,13.30
2022-10-19T15:36:32.964Z,11.50
2022-10-19T15:41:40.107Z,15.60
2022-10-19T15:46:49.045Z,13.00
2022-10-19T15:51:52.089Z,11.80
2022-10-19T15:56:56.550Z,19.80
2022-10-19T16:01:59.522Z,24.30
2022-10-19T16:07:02.513Z,14.30
2022-10-19T16:12:05.609Z,10.40
2022-10-19T16:17:13.222Z,15.30
2022-10-19T16:22:16.902Z,11.50
2022-10-19T16:27:19.819Z,119.30
2022-10-19T16:32:22.739Z,599.30
2022-10-19T16:37:25.648Z,674.70
2022-10-19T16:42:30.551Z,72.60
2022-10-19T16:47:33.684Z,36.30
2022-10-19T16:52:37.081Z,24.10
2022-10-19T17:02:45.735Z,14.80
2022-10-19T17:07:49.568Z,23.50
2022-10-19T17:12:52.469Z,16.30
2022-10-19T17:17:57.486Z,14.30
2022-10-19T17:23:00.382Z,32.70
2022-10-19T17:28:03.348Z,482.50
2022-10-19T17:33:06.223Z,705.60
2022-10-19T17:38:09.115Z,486.00
2022-10-19T17:43:12.053Z,413.60
2022-10-19T17:48:14.918Z,225.60
2022-10-19T17:53:17.838Z,187.20
2022-10-19T17:58:21.315Z,329.00
2022-10-19T18:03:26.879Z,49.10
2022-10-19T18:08:32.509Z,57.10
2022-10-19T18:18:43.161Z,14.20
2022-10-19T18:23:46.180Z,18.00
2022-10-19T18:28:52.638Z,14.10
2022-10-19T18:34:02.360Z,12.20
2022-10-19T18:39:07.588Z,14.10
2022-10-19T18:44:13.950Z,19.70
2022-10-19T18:49:17.095Z,107.90
2022-10-19T18:54:20.324Z,26.50
2022-10-19T18:59:23.552Z,52.80
2022-10-19T19:04:26.829Z,26.30
2022-10-19T19:09:29.761Z,50.10
2022-10-19T19:14:32.656Z,68.30
2022-10-19T19:19:35.573Z,90.00
2022-10-19T19:24:38.553Z,48.90
2022-10-19T19:29:41.494Z,88.50
2022-10-19T19:34:44.450Z,94.60
2022-10-19T19:39:47.418Z,22.00
2022-10-19T19:44:50.321Z,14.40
2022-10-19T19:49:53.228Z,14.90
2022-10-19T19:54:56.161Z,27.90
2022-10-19T19:59:59.087Z,21.90
2022-10-19T20:05:02.053Z,17.80
2022-10-19T20:10:05.366Z,19.40
2022-10-19T20:15:09.041Z,27.10
2022-10-19T20:25:16.614Z,16.60
2022-10-19T20:30:19.628Z,12.60
2022-10-19T20:35:22.528Z,13.20
2022-10-19T20:40:25.507Z,14.40
2022-10-19T20:45:28.463Z,14.10
2022-10-19T20:50:31.373Z,14.70
2022-10-19T20:55:34.302Z,19.20
2022-10-19T21:00:37.210Z,20.00
2022-10-19T21:05:40.136Z,14.20
2022-10-19T21:10:43.333Z,82.40
2022-10-19T21:15:46.245Z,46.90
2022-10-19T21:20:49.140Z,68.10
2022-10-19T21:25:55.656Z,52.10
2022-10-19T21:31:06.922Z,24.70
2022-10-19T21:36:11.792Z,14.00
2022-10-19T21:41:20.985Z,13.90
2022-10-19T21:46:27.259Z,14.60
2022-10-19T21:51:49.036Z,14.10
2022-10-19T21:56:53.412Z,14.70
2022-10-19T22:01:57.258Z,14.00
2022-10-19T22:12:04.595Z,13.60
2022-10-19T22:17:07.589Z,11.80
2022-10-19T22:22:10.497Z,12.70
2022-10-19T22:27:13.407Z,15.80
2022-10-19T22:32:16.350Z,13.50
2022-10-19T22:37:19.284Z,11.50
2022-10-19T22:42:22.229Z,15.20
2022-10-19T22:47:25.113Z,11.50
2022-10-19T22:52:27.959Z,12.90
2022-10-19T22:57:30.819Z,12.70
2022-10-19T23:02:33.884Z,11.40
2022-10-19T23:07:38.339Z,11.50
2022-10-19T23:12:42.296Z,11.40
2022-10-19T23:22:49.928Z,11.10
2022-10-19T23:27:52.813Z,11.20
2022-10-19T23:32:55.670Z,14.20
2022-10-19T23:37:58.529Z,10.20
2022-10-19T23:43:01.465Z,11.70
2022-10-19T23:48:04.643Z,12.90
2022-10-19T23:53:07.569Z,12.50
2022-10-19T23:58:10.453Z,11.70
